Port Clarence, Alaska
Current Conditions -  °F | °C
As of 11:58 AM on Friday 28 Nov 2014 (Local Time) from PATE Reporting Station
Overcast Overcast  
Wind Chill: 14°   Ceiling: 2500
Heat Index: 27°   Visibility: 10mi
Dew Point: 25°   Wind: 18mph
Humidity: 92%   Direction: 110°ESE
Pressure: 29.94"   Gusts: NA
Location:  65.26°N, 166.85°W
Report Text: PATE 282058Z AUTO 11016KT 10SM BKN025 OVC048 M03/M04 A2994 RMK AO2 SNB08E18 SLP151 P0000 60000 T10281039 50010 FZRANO
Loading
Personal Weather Stations






























Interactive Weather Map New forecast layout! Learn more

10-Day Weather Forecast

Advertisements
Track Severe Weather on mobile